Time;durP1;ratioP1;P1;durP2;ratioP2;P2;SDS_P1;SDS_P2;PMS_P1;PMS_P2;Temp;Humidity;BMP_temperature;BMP_pressure;BME280_temperature;BME280_humidity;BME280_pressure;Samples;Min_cycle;Max_cycle;Signal;HPM_P1;HPM_P2
2022/05/08 00:00:09;;;;;;;10.63;6.77;;;16.60;99.90;;;;;;5037031;28;20210;-92
2022/05/08 00:02:35;;;;;;;13.90;7.23;;;16.50;99.90;;;;;;5037841;28;20216;-92
2022/05/08 00:05:01;;;;;;;9.70;7.60;;;16.40;99.90;;;;;;5038043;28;20510;-93
2022/05/08 00:07:27;;;;;;;11.07;7.33;;;16.40;99.90;;;;;;5042717;28;20454;-92
2022/05/08 00:09:52;;;;;;;11.00;7.43;;;16.40;99.90;;;;;;5060132;28;20479;-92
2022/05/08 00:12:18;;;;;;;7.77;6.33;;;16.40;99.90;;;;;;5050182;28;20495;-92
2022/05/08 00:14:45;;;;;;;12.10;7.97;;;16.30;99.90;;;;;;5042646;28;20217;-93
2022/05/08 00:17:13;;;;;;;13.13;7.90;;;16.30;99.90;;;;;;5046397;28;20524;-92
2022/05/08 00:19:44;;;;;;;15.30;7.50;;;16.30;99.90;;;;;;5035102;28;20987;-93
2022/05/08 00:22:11;;;;;;;11.90;7.10;;;16.30;99.90;;;;;;5052922;28;20927;-93
2022/05/08 00:24:38;;;;;;;8.97;6.50;;;16.30;99.90;;;;;;5039052;28;20481;-92
2022/05/08 00:27:04;;;;;;;10.30;6.50;;;16.20;99.90;;;;;;5013949;28;20447;-93
2022/05/08 00:29:30;;;;;;;11.47;7.90;;;16.20;99.90;;;;;;5017681;28;20428;-92
2022/05/08 00:31:56;;;;;;;9.50;7.23;;;16.10;99.90;;;;;;5014070;28;20443;-92
2022/05/08 00:34:22;;;;;;;11.70;9.17;;;16.00;99.90;;;;;;5013836;28;20519;-92
2022/05/08 00:36:48;;;;;;;15.70;8.10;;;15.90;99.90;;;;;;5014517;28;20439;-93
2022/05/08 00:39:16;;;;;;;13.20;8.13;;;15.90;99.90;;;;;;5015324;28;20472;-93
2022/05/08 00:41:42;;;;;;;8.60;7.67;;;15.90;99.90;;;;;;5015449;28;20194;-93
2022/05/08 00:44:08;;;;;;;10.07;7.60;;;15.90;99.90;;;;;;5033163;28;20432;-93
2022/05/08 00:46:34;;;;;;;12.10;7.97;;;15.90;99.90;;;;;;5033002;28;20408;-92
2022/05/08 00:48:59;;;;;;;11.17;7.10;;;15.90;99.90;;;;;;5033142;28;20266;-93
2022/05/08 00:51:27;;;;;;;11.20;6.70;;;15.80;99.90;;;;;;5015949;28;20175;-92
2022/05/08 00:53:56;;;;;;;9.40;7.50;;;15.80;99.90;;;;;;5016262;28;20227;-92
2022/05/08 00:56:22;;;;;;;11.13;7.80;;;15.80;99.90;;;;;;5033580;28;20435;-93
2022/05/08 00:58:50;;;;;;;12.00;8.27;;;15.70;99.90;;;;;;5034557;28;20463;-92
2022/05/08 01:01:17;;;;;;;9.53;7.20;;;15.60;99.90;;;;;;5015636;28;20427;-92
2022/05/08 01:03:43;;;;;;;9.63;7.50;;;15.60;99.90;;;;;;5017591;28;20850;-92
2022/05/08 01:06:12;;;;;;;12.57;7.80;;;15.60;99.90;;;;;;5034742;28;20450;-93
2022/05/08 01:08:43;;;;;;;10.83;7.40;;;15.60;99.90;;;;;;5017265;28;20982;-92
2022/05/08 01:11:10;;;;;;;10.80;7.77;;;15.60;99.90;;;;;;5040099;28;20478;-92
2022/05/08 01:13:36;;;;;;;9.70;8.00;;;15.60;99.90;;;;;;5040722;28;20787;-93
2022/05/08 01:16:06;;;;;;;14.33;8.50;;;15.50;99.90;;;;;;5026774;28;20412;-91
2022/05/08 01:18:32;;;;;;;11.83;7.93;;;15.50;99.90;;;;;;5018823;28;20443;-92
2022/05/08 01:20:58;;;;;;;9.30;7.67;;;15.40;99.90;;;;;;5045365;28;20901;-91
2022/05/08 01:23:23;;;;;;;9.90;7.90;;;15.40;99.90;;;;;;5035630;28;20457;-92
2022/05/08 01:25:54;;;;;;;9.70;7.37;;;15.30;99.90;;;;;;5014422;28;20223;-90
2022/05/08 01:28:21;;;;;;;13.23;8.50;;;15.30;99.90;;;;;;5032791;28;20276;-92
2022/05/08 01:30:49;;;;;;;10.80;8.57;;;15.30;99.90;;;;;;5015190;28;20456;-92
2022/05/08 01:33:15;;;;;;;10.67;8.30;;;15.30;99.90;;;;;;5014454;28;20432;-93
2022/05/08 01:35:42;;;;;;;12.67;8.30;;;15.30;99.90;;;;;;5031874;28;20411;-93
2022/05/08 01:38:09;;;;;;;11.30;7.83;;;15.20;99.90;;;;;;5014701;28;20431;-92
2022/05/08 01:40:36;;;;;;;14.37;7.83;;;15.20;99.90;;;;;;5015155;28;20491;-92
2022/05/08 01:43:02;;;;;;;11.70;7.47;;;15.20;99.90;;;;;;5032857;28;20428;-91
2022/05/08 01:45:28;;;;;;;8.50;7.07;;;15.10;99.90;;;;;;5033244;28;20473;-93
2022/05/08 01:50:39;;;;;;;9.00;7.30;;;15.10;99.90;;;;;;5038384;28;20404;-93
2022/05/08 01:53:06;;;;;;;12.10;6.93;;;15.00;99.90;;;;;;5017077;28;20951;-92
2022/05/08 01:55:32;;;;;;;11.70;8.60;;;15.00;99.90;;;;;;5034626;28;20396;-91
2022/05/08 01:57:58;;;;;;;10.07;7.37;;;15.00;99.90;;;;;;5018661;28;20480;-93
2022/05/08 02:00:25;;;;;;;8.80;6.53;;;15.00;99.90;;;;;;5021378;28;20668;-93
2022/05/08 02:02:52;;;;;;;13.50;8.60;;;15.00;99.90;;;;;;5028131;28;20437;-92
2022/05/08 02:05:22;;;;;;;11.73;7.73;;;14.90;99.90;;;;;;5034776;28;20416;-93
2022/05/08 02:07:48;;;;;;;13.00;8.03;;;14.90;99.90;;;;;;5036161;28;20574;-93
2022/05/08 02:10:16;;;;;;;13.87;8.80;;;14.80;99.90;;;;;;5016630;28;20478;-92
2022/05/08 02:12:43;;;;;;;10.03;7.50;;;14.80;99.90;;;;;;5017280;28;20956;-92
2022/05/08 02:15:11;;;;;;;13.37;8.03;;;14.80;99.90;;;;;;5017953;28;20434;-93
2022/05/08 02:17:38;;;;;;;11.20;7.20;;;14.70;99.90;;;;;;5018166;28;20447;-92
2022/05/08 02:20:06;;;;;;;8.40;7.40;;;14.70;99.90;;;;;;5036035;28;20482;-93
2022/05/08 02:22:32;;;;;;;10.40;7.23;;;14.60;99.90;;;;;;5018111;28;20447;-93
2022/05/08 02:24:59;;;;;;;10.43;7.43;;;14.60;99.90;;;;;;5018679;28;20435;-92
2022/05/08 02:27:25;;;;;;;9.57;7.40;;;14.50;99.90;;;;;;5031181;28;20434;-93
2022/05/08 02:29:52;;;;;;;10.73;7.23;;;14.50;99.90;;;;;;5036930;28;20431;-92
2022/05/08 02:32:18;;;;;;;10.50;7.13;;;14.50;99.90;;;;;;5054751;28;20457;-92
2022/05/08 02:34:45;;;;;;;12.17;7.57;;;14.40;99.90;;;;;;5054873;28;21022;-92
2022/05/08 02:37:11;;;;;;;12.13;8.33;;;14.40;99.90;;;;;;5054818;28;20423;-93
2022/05/08 02:39:37;;;;;;;9.70;7.27;;;14.40;99.90;;;;;;5054470;28;20478;-92
2022/05/08 02:42:03;;;;;;;12.60;6.97;;;14.40;99.90;;;;;;5036451;28;20495;-92
2022/05/08 02:44:29;;;;;;;10.63;9.20;;;14.40;99.90;;;;;;5038451;28;20459;-91
2022/05/08 02:46:54;;;;;;;8.97;6.80;;;14.40;99.90;;;;;;5057513;28;20427;-93
2022/05/08 02:49:20;;;;;;;10.97;6.90;;;14.40;99.90;;;;;;5044557;28;20188;-92
2022/05/08 02:51:46;;;;;;;14.33;8.10;;;14.30;99.90;;;;;;5042661;28;20221;-92
2022/05/08 02:54:12;;;;;;;11.97;7.43;;;14.30;99.90;;;;;;5036113;28;20227;-93
2022/05/08 02:59:22;;;;;;;13.53;8.50;;;14.30;99.90;;;;;;5054559;28;20474;-93
2022/05/08 03:01:48;;;;;;;11.07;7.13;;;14.20;99.90;;;;;;5036089;28;20435;-92
2022/05/08 03:04:13;;;;;;;10.87;7.80;;;14.20;99.90;;;;;;5037434;28;20273;-92
2022/05/08 03:06:39;;;;;;;10.00;7.17;;;14.20;99.90;;;;;;5053702;28;20239;-92
2022/05/08 03:09:05;;;;;;;8.00;6.93;;;14.20;99.90;;;;;;5053757;28;20178;-91
2022/05/08 03:11:32;;;;;;;14.30;8.57;;;14.20;99.90;;;;;;5036260;28;20230;-92
2022/05/08 03:13:58;;;;;;;11.70;7.70;;;14.10;99.90;;;;;;5054586;28;20525;-92
2022/05/08 03:16:27;;;;;;;11.63;7.60;;;14.10;99.90;;;;;;5054146;28;20467;-93
2022/05/08 03:18:55;;;;;;;12.40;8.03;;;14.10;99.90;;;;;;5054698;28;20470;-92
2022/05/08 03:21:22;;;;;;;14.23;9.40;;;14.10;99.90;;;;;;5055559;28;20413;-92
2022/05/08 03:23:48;;;;;;;12.10;8.23;;;14.00;99.90;;;;;;5037384;28;20442;-92
2022/05/08 03:26:19;;;;;;;12.83;8.43;;;14.00;99.90;;;;;;5048165;28;20424;-91
2022/05/08 03:28:45;;;;;;;13.63;8.27;;;14.00;99.90;;;;;;5030824;28;20464;-93
2022/05/08 03:31:11;;;;;;;16.03;8.50;;;13.90;99.90;;;;;;5014849;28;20408;-91
2022/05/08 03:33:38;;;;;;;13.03;7.80;;;13.90;99.90;;;;;;5018114;28;20443;-92
2022/05/08 03:36:06;;;;;;;10.50;8.17;;;13.90;99.90;;;;;;5014349;28;20413;-92
2022/05/08 03:38:33;;;;;;;14.57;7.90;;;13.90;99.90;;;;;;5017503;28;20447;-93
2022/05/08 03:40:59;;;;;;;15.17;8.03;;;13.90;99.90;;;;;;5020897;28;20486;-93
2022/05/08 03:43:25;;;;;;;10.03;6.93;;;13.90;99.90;;;;;;5017185;28;20941;-91
2022/05/08 03:45:51;;;;;;;11.37;8.47;;;13.90;99.90;;;;;;5017344;28;20424;-90
2022/05/08 03:48:18;;;;;;;9.57;6.93;;;13.90;99.90;;;;;;5013018;28;20198;-92
2022/05/08 03:50:44;;;;;;;12.70;8.00;;;13.90;99.90;;;;;;5013616;28;20456;-92
2022/05/08 03:53:11;;;;;;;11.60;7.60;;;13.80;99.90;;;;;;5030732;28;20444;-93
2022/05/08 03:55:36;;;;;;;10.93;7.83;;;13.80;99.90;;;;;;5013239;28;20421;-92
2022/05/08 03:58:03;;;;;;;13.13;8.07;;;13.80;99.90;;;;;;5013172;28;20499;-93
2022/05/08 04:00:28;;;;;;;13.67;8.37;;;13.80;99.90;;;;;;5013294;28;20250;-91
2022/05/08 04:02:55;;;;;;;11.93;7.77;;;13.70;99.90;;;;;;5013467;28;20455;-92
2022/05/08 04:05:22;;;;;;;11.13;8.63;;;13.80;99.90;;;;;;5014361;28;20225;-93
2022/05/08 04:07:48;;;;;;;14.33;8.77;;;13.80;99.90;;;;;;5014830;28;20436;-93
2022/05/08 04:10:14;;;;;;;12.30;7.80;;;13.80;99.90;;;;;;5015944;28;20790;-92
2022/05/08 04:12:42;;;;;;;15.30;7.90;;;13.80;99.90;;;;;;5050275;28;20440;-92
2022/05/08 04:17:53;;;;;;;11.17;7.30;;;13.80;99.90;;;;;;5037701;28;20476;-92
2022/05/08 04:20:19;;;;;;;11.90;8.27;;;13.80;99.90;;;;;;5049625;28;20595;-92
2022/05/08 04:25:29;;;;;;;12.63;8.17;;;13.70;99.90;;;;;;5035244;28;20419;-92
2022/05/08 04:27:55;;;;;;;11.30;7.10;;;13.70;99.90;;;;;;5052284;28;20439;-92
2022/05/08 04:30:21;;;;;;;13.50;9.30;;;13.80;99.90;;;;;;5036787;28;20174;-93
2022/05/08 04:32:46;;;;;;;16.00;9.37;;;13.80;99.90;;;;;;5036261;28;20265;-92
2022/05/08 04:35:12;;;;;;;13.00;8.40;;;13.80;99.90;;;;;;5057440;28;20174;-93
2022/05/08 04:37:40;;;;;;;11.07;7.80;;;13.90;99.90;;;;;;5055064;28;20202;-93
2022/05/08 04:40:07;;;;;;;13.00;9.07;;;13.90;99.90;;;;;;5036777;28;20304;-92
2022/05/08 04:42:33;;;;;;;12.20;7.33;;;14.00;99.90;;;;;;5054112;28;20816;-93
2022/05/08 04:44:59;;;;;;;11.53;8.17;;;14.00;99.90;;;;;;5055442;28;20414;-92
2022/05/08 04:47:27;;;;;;;11.50;8.30;;;14.00;99.90;;;;;;5047237;28;20438;-92
2022/05/08 04:49:53;;;;;;;13.40;8.83;;;14.10;99.90;;;;;;5054458;28;20456;-92
2022/05/08 04:52:18;;;;;;;14.27;9.03;;;14.10;99.90;;;;;;5035349;28;20847;-92
2022/05/08 04:54:44;;;;;;;9.60;7.73;;;14.20;99.90;;;;;;5034676;28;20186;-92
2022/05/08 04:57:10;;;;;;;16.80;8.83;;;14.20;99.90;;;;;;5034709;28;20202;-93
2022/05/08 04:59:36;;;;;;;8.80;6.97;;;14.30;99.90;;;;;;5053116;28;20206;-93
2022/05/08 05:02:02;;;;;;;11.47;8.43;;;14.30;99.90;;;;;;5035342;28;20205;-93
2022/05/08 05:04:28;;;;;;;15.77;9.27;;;14.40;99.90;;;;;;5052913;28;20186;-93
2022/05/08 05:06:54;;;;;;;11.33;8.97;;;14.50;99.90;;;;;;5037417;28;20435;-91
2022/05/08 05:09:20;;;;;;;10.73;7.73;;;14.50;99.90;;;;;;5039942;28;20471;-93
2022/05/08 05:11:47;;;;;;;13.40;9.33;;;14.60;99.90;;;;;;5021378;28;20506;-93
2022/05/08 05:14:12;;;;;;;11.20;7.67;;;14.60;99.90;;;;;;5101152;28;20427;-93
2022/05/08 05:16:38;;;;;;;12.50;8.03;;;14.70;99.90;;;;;;5032552;28;20927;-93
2022/05/08 05:19:04;;;;;;;11.27;7.57;;;14.70;99.90;;;;;;5101164;28;20210;-93
2022/05/08 05:21:30;;;;;;;11.20;8.30;;;14.80;99.90;;;;;;5101658;28;20228;-93
2022/05/08 05:23:57;;;;;;;12.97;8.27;;;14.90;99.90;;;;;;5033524;28;20828;-93
2022/05/08 05:26:23;;;;;;;11.67;7.97;;;15.00;99.90;;;;;;5096177;28;20412;-93
2022/05/08 05:28:49;;;;;;;14.30;8.83;;;15.00;99.90;;;;;;5081218;28;20427;-93
2022/05/08 05:31:15;;;;;;;12.77;7.40;;;15.10;99.90;;;;;;5080785;28;20500;-92
2022/05/08 05:33:41;;;;;;;13.57;8.83;;;15.20;99.90;;;;;;5014045;28;20207;-92
2022/05/08 05:36:06;;;;;;;10.67;8.43;;;15.30;99.90;;;;;;5083798;28;20405;-92
2022/05/08 05:38:33;;;;;;;13.20;8.40;;;15.40;99.90;;;;;;5014057;28;20432;-92
2022/05/08 05:40:59;;;;;;;13.07;8.10;;;15.50;99.90;;;;;;5081907;28;20457;-92
2022/05/08 05:43:24;;;;;;;11.97;8.40;;;15.60;99.90;;;;;;5081568;28;20552;-91
2022/05/08 05:47:49;;;;;;;13.60;8.47;;;15.70;99.90;;;;;;5000142;28;20171;-92
2022/05/08 05:48:37;;;;;;;11.90;7.77;;;15.80;99.90;;;;;;5012092;28;20582;-93
2022/05/08 05:51:03;;;;;;;12.37;8.07;;;15.90;99.90;;;;;;5011843;28;20927;-92
2022/05/08 05:53:29;;;;;;;10.00;7.93;;;16.00;99.90;;;;;;5080639;28;20453;-92
2022/05/08 05:56:00;;;;;;;13.63;9.00;;;16.10;99.90;;;;;;5012022;28;20466;-92
2022/05/08 05:58:26;;;;;;;10.93;7.60;;;16.20;99.90;;;;;;5012807;28;20199;-91
2022/05/08 06:00:52;;;;;;;11.50;8.10;;;16.30;99.90;;;;;;5016395;28;20901;-92
2022/05/08 06:03:17;;;;;;;14.60;8.97;;;16.30;99.90;;;;;;5084630;28;20210;-93
2022/05/08 06:05:44;;;;;;;9.97;7.53;;;16.40;99.90;;;;;;5083476;28;20511;-92
2022/05/08 06:08:09;;;;;;;12.20;8.50;;;16.50;99.90;;;;;;5082730;28;20202;-92
2022/05/08 06:10:36;;;;;;;13.50;8.10;;;16.60;99.90;;;;;;5038671;28;20476;-92
2022/05/08 06:13:02;;;;;;;13.53;8.83;;;16.70;99.90;;;;;;5115908;28;20195;-93
2022/05/08 06:15:28;;;;;;;10.50;7.97;;;16.70;99.90;;;;;;5116360;28;20420;-91
2022/05/08 06:17:55;;;;;;;9.17;7.13;;;16.80;99.90;;;;;;5114683;28;20450;-93
2022/05/08 06:20:21;;;;;;;12.13;8.60;;;16.90;99.90;;;;;;5100180;28;20211;-92
2022/05/08 06:22:46;;;;;;;11.17;8.57;;;17.00;99.90;;;;;;5116811;28;20492;-92
2022/05/08 06:25:12;;;;;;;12.10;7.53;;;17.00;99.90;;;;;;5100207;28;20456;-91
2022/05/08 06:27:38;;;;;;;12.40;8.13;;;17.10;99.90;;;;;;5117797;28;20235;-92
2022/05/08 06:30:05;;;;;;;10.70;8.00;;;17.20;99.90;;;;;;5107283;28;20247;-92
2022/05/08 06:32:31;;;;;;;12.67;8.73;;;17.30;99.90;;;;;;5100148;28;20196;-92
2022/05/08 06:34:57;;;;;;;9.97;7.40;;;17.30;99.90;;;;;;5103715;28;20438;-92
2022/05/08 06:37:22;;;;;;;9.10;6.60;;;17.50;99.90;;;;;;5100437;28;20192;-91
2022/05/08 06:39:48;;;;;;;10.70;7.43;;;17.50;99.90;;;;;;5110812;28;20226;-93
2022/05/08 06:42:14;;;;;;;12.27;8.33;;;17.60;99.90;;;;;;5100744;28;20282;-92
2022/05/08 06:44:39;;;;;;;9.60;6.90;;;17.70;99.90;;;;;;5109117;28;20233;-92
2022/05/08 06:47:05;;;;;;;12.47;8.70;;;17.80;99.90;;;;;;5132674;28;20230;-92
2022/05/08 06:49:31;;;;;;;7.97;6.20;;;17.90;99.90;;;;;;5100057;28;20632;-93
2022/05/08 06:51:57;;;;;;;10.37;6.27;;;17.90;99.90;;;;;;5100445;28;20223;-92
2022/05/08 06:54:23;;;;;;;7.23;5.87;;;18.00;99.90;;;;;;5120035;28;20168;-92
2022/05/08 06:56:49;;;;;;;6.87;5.20;;;18.10;99.90;;;;;;5100220;28;20330;-92
2022/05/08 07:01:59;;;;;;;6.87;5.03;;;18.40;99.90;;;;;;5118726;28;20232;-92
2022/05/08 07:04:25;;;;;;;7.00;4.83;;;18.40;99.90;;;;;;5118414;28;20976;-92
2022/05/08 07:06:51;;;;;;;6.13;3.57;;;18.60;99.90;;;;;;5099498;28;20196;-92
2022/05/08 07:09:17;;;;;;;7.27;4.00;;;18.70;99.90;;;;;;5100550;28;20703;-93
2022/05/08 07:11:47;;;;;;;9.10;5.00;;;18.80;99.90;;;;;;5059964;28;20479;-92
2022/05/08 07:14:16;;;;;;;6.70;4.43;;;18.90;99.90;;;;;;5016888;28;20524;-92
2022/05/08 07:16:43;;;;;;;4.10;3.53;;;19.00;99.90;;;;;;5017053;28;20439;-91
2022/05/08 07:19:09;;;;;;;9.60;4.90;;;19.10;99.90;;;;;;5034276;28;20468;-92
2022/05/08 07:21:35;;;;;;;5.43;4.20;;;19.20;99.90;;;;;;5016916;28;20418;-93
2022/05/08 07:24:01;;;;;;;9.33;4.20;;;19.30;99.90;;;;;;5015374;28;20452;-92
2022/05/08 07:26:27;;;;;;;8.37;4.27;;;19.40;99.90;;;;;;5036031;28;20465;-94
2022/05/08 07:28:53;;;;;;;5.57;4.00;;;19.50;99.90;;;;;;5017334;28;20208;-93
2022/05/08 07:31:19;;;;;;;4.13;3.73;;;19.60;99.90;;;;;;5012109;28;20189;-92
2022/05/08 07:33:45;;;;;;;6.10;4.20;;;19.70;99.90;;;;;;5009207;28;21026;-92
2022/05/08 07:36:13;;;;;;;4.93;3.93;;;19.80;99.90;;;;;;5033333;28;20171;-93
2022/05/08 07:38:40;;;;;;;4.50;4.03;;;19.80;99.90;;;;;;5015618;28;20200;-92
2022/05/08 07:41:06;;;;;;;6.67;3.80;;;19.90;99.90;;;;;;5016892;28;20469;-92
2022/05/08 07:43:31;;;;;;;5.70;4.33;;;20.00;99.90;;;;;;5017120;28;20454;-94
2022/05/08 07:45:58;;;;;;;7.57;4.60;;;20.00;99.90;;;;;;5022584;28;20184;-92
2022/05/08 07:48:23;;;;;;;11.93;5.00;;;20.10;99.90;;;;;;5017149;28;20221;-92
2022/05/08 07:50:49;;;;;;;5.60;4.53;;;20.20;99.90;;;;;;5015486;28;20496;-91
2022/05/08 07:53:15;;;;;;;7.93;5.90;;;20.30;99.90;;;;;;5014969;28;20296;-94
2022/05/08 07:55:41;;;;;;;6.43;4.43;;;20.30;99.90;;;;;;5019994;28;20514;-91
2022/05/08 07:58:09;;;;;;;4.83;3.80;;;20.40;99.90;;;;;;5075629;27;20454;-94
2022/05/08 08:00:36;;;;;;;5.50;4.33;;;20.50;99.90;;;;;;5078090;27;20466;-92
2022/05/08 08:03:03;;;;;;;5.33;3.80;;;20.60;99.90;;;;;;5078558;27;20510;-93
2022/05/08 08:05:29;;;;;;;4.03;3.53;;;20.60;99.90;;;;;;5014219;28;20491;-94
2022/05/08 08:07:55;;;;;;;3.87;3.13;;;20.70;99.90;;;;;;5012656;28;20472;-91
2022/05/08 08:10:21;;;;;;;4.70;4.20;;;20.70;99.90;;;;;;5133263;27;20433;-94
2022/05/08 08:12:46;;;;;;;6.33;3.60;;;20.80;99.90;;;;;;5116695;27;20195;-94
2022/05/08 08:15:12;;;;;;;6.47;3.53;;;20.80;99.20;;;;;;5116623;27;20639;-93
2022/05/08 08:17:39;;;;;;;3.77;3.33;;;20.80;98.90;;;;;;5116388;27;20652;-94
2022/05/08 08:20:06;;;;;;;8.43;3.70;;;20.80;98.60;;;;;;5116474;27;20517;-92
2022/05/08 08:22:33;;;;;;;7.33;3.40;;;20.80;98.50;;;;;;5116759;27;20951;-92
2022/05/08 08:25:00;;;;;;;9.33;4.60;;;20.80;99.00;;;;;;5117155;27;20439;-94
2022/05/08 08:27:29;;;;;;;6.17;3.90;;;20.90;98.50;;;;;;5118213;27;20423;-94
2022/05/08 08:29:55;;;;;;;6.00;3.97;;;20.90;98.10;;;;;;5138702;27;20527;-94
2022/05/08 08:32:24;;;;;;;4.60;4.00;;;20.90;98.20;;;;;;5118250;27;20446;-92
2022/05/08 08:34:50;;;;;;;6.57;3.97;;;20.90;98.10;;;;;;5136382;27;20194;-93
2022/05/08 08:37:15;;;;;;;4.67;4.17;;;21.00;97.70;;;;;;5135940;27;20931;-94
2022/05/08 08:39:42;;;;;;;4.30;3.43;;;21.10;98.30;;;;;;5119657;27;20617;-93
2022/05/08 08:42:22;;;;;;;5.93;3.83;;;21.10;97.90;;;;;;5137208;27;20193;-93
2022/05/08 08:48:05;;;;;;;5.87;3.13;;;21.30;97.70;;;;;;5139412;27;20421;-92
2022/05/08 08:50:32;;;;;;;3.70;3.20;;;21.40;96.30;;;;;;5136505;27;20438;-92
2022/05/08 08:53:04;;;;;;;4.60;3.30;;;21.50;95.80;;;;;;5119952;27;20793;-92
2022/05/08 08:55:31;;;;;;;3.63;2.90;;;21.60;96.50;;;;;;5121353;27;20431;-94
2022/05/08 08:57:57;;;;;;;5.73;3.40;;;21.70;95.60;;;;;;5138150;27;20468;-94
2022/05/08 09:00:23;;;;;;;3.40;2.90;;;21.80;94.60;;;;;;5138826;27;20967;-93
2022/05/08 09:02:52;;;;;;;3.93;2.93;;;22.00;95.50;;;;;;5125964;27;20415;-94
2022/05/08 09:05:18;;;;;;;4.90;3.13;;;22.10;94.40;;;;;;5120431;27;20459;-92
2022/05/08 09:07:45;;;;;;;3.07;2.77;;;22.20;93.40;;;;;;5117771;27;20502;-92
2022/05/08 09:10:19;;;;;;;4.03;3.33;;;22.30;93.60;;;;;;5126551;27;20423;-89
2022/05/08 09:12:56;;;;;;;3.27;2.97;;;22.40;92.60;;;;;;5128157;27;20438;-94
2022/05/08 09:15:27;;;;;;;4.40;3.17;;;22.50;92.80;;;;;;5125984;27;20447;-93
2022/05/08 09:18:06;;;;;;;3.60;2.97;;;22.60;92.70;;;;;;5145446;27;20408;-90
2022/05/08 09:20:40;;;;;;;4.93;3.10;;;22.70;92.50;;;;;;5119643;28;20477;-90
2022/05/08 09:23:16;;;;;;;3.83;3.43;;;22.70;92.30;;;;;;5120722;28;20793;-92
2022/05/08 09:25:50;;;;;;;5.40;3.30;;;22.80;93.00;;;;;;5120509;27;20780;-91
2022/05/08 09:28:26;;;;;;;4.10;3.10;;;22.90;92.40;;;;;;5015029;28;20428;-91
2022/05/08 09:30:59;;;;;;;3.70;3.23;;;23.00;92.00;;;;;;4997325;28;20984;-91
2022/05/08 09:33:45;;;;;;;3.70;3.30;;;23.20;92.20;;;;;;4995365;28;20514;-91
2022/05/08 09:36:18;;;;;;;3.90;3.07;;;23.30;91.50;;;;;;5013225;28;20503;-91
2022/05/08 09:38:53;;;;;;;4.73;2.93;;;23.30;91.20;;;;;;5024305;28;20922;-92
2022/05/08 09:41:23;;;;;;;3.23;2.93;;;23.40;91.50;;;;;;4994687;28;20424;-92
2022/05/08 09:43:51;;;;;;;4.67;3.80;;;23.40;90.70;;;;;;5010822;28;20422;-92
2022/05/08 09:46:20;;;;;;;4.47;3.40;;;23.40;90.30;;;;;;4994640;28;20420;-90
2022/05/08 09:48:46;;;;;;;6.13;3.03;;;23.50;90.30;;;;;;4994975;28;20459;-90
2022/05/08 09:51:15;;;;;;;3.93;3.53;;;23.50;89.80;;;;;;4994492;28;20451;-91
2022/05/08 09:53:42;;;;;;;3.50;3.00;;;23.50;88.60;;;;;;5012528;28;20460;-92
2022/05/08 09:56:10;;;;;;;5.60;3.80;;;23.60;88.70;;;;;;4995359;28;20427;-91
2022/05/08 09:58:40;;;;;;;3.80;3.40;;;23.60;88.30;;;;;;5014793;28;20838;-91
2022/05/08 10:01:07;;;;;;;4.00;2.93;;;23.50;88.80;;;;;;4995807;28;21055;-90
2022/05/08 10:03:33;;;;;;;5.13;4.00;;;23.50;88.80;;;;;;4994291;28;20441;-90
2022/05/08 10:06:00;;;;;;;4.67;3.60;;;23.50;88.70;;;;;;4993946;28;21001;-92
2022/05/08 10:08:33;;;;;;;5.90;3.20;;;23.40;87.60;;;;;;4994987;28;20439;-93
2022/05/08 10:13:58;;;;;;;4.37;2.90;;;23.50;88.70;;;;;;5094406;28;20509;-93
2022/05/08 10:16:46;;;;;;;3.63;2.80;;;23.40;87.50;;;;;;5094787;28;20900;-93
2022/05/08 10:19:23;;;;;;;4.47;3.00;;;23.40;87.60;;;;;;5095799;28;20883;-91
2022/05/08 10:22:06;;;;;;;3.60;2.87;;;23.40;87.60;;;;;;5096746;28;20426;-94
2022/05/08 10:24:41;;;;;;;2.57;2.37;;;23.40;87.70;;;;;;5097035;28;20472;-92
2022/05/08 10:27:15;;;;;;;3.80;2.70;;;23.40;88.20;;;;;;5108990;28;20437;-93
2022/05/08 10:30:02;;;;;;;4.10;3.70;;;23.50;89.30;;;;;;5116848;28;20965;-91
2022/05/08 10:32:33;;;;;;;3.53;3.23;;;23.50;88.00;;;;;;5119047;28;20478;-93
2022/05/08 10:35:10;;;;;;;3.57;3.10;;;23.60;89.00;;;;;;5101846;28;20428;-92
2022/05/08 10:37:43;;;;;;;4.00;3.60;;;23.70;90.60;;;;;;5102265;28;20441;-91
2022/05/08 10:40:24;;;;;;;5.50;3.40;;;23.80;90.50;;;;;;5102470;28;20477;-91
2022/05/08 10:42:52;;;;;;;3.30;3.00;;;24.00;90.00;;;;;;5101975;28;20433;-93
2022/05/08 10:45:31;;;;;;;4.30;3.73;;;24.10;88.20;;;;;;5101181;28;20465;-93
2022/05/08 10:47:58;;;;;;;4.80;3.50;;;24.10;89.00;;;;;;5100918;28;20432;-92
2022/05/08 10:50:24;;;;;;;3.80;3.50;;;24.20;89.30;;;;;;5120384;28;20410;-93
2022/05/08 10:52:50;;;;;;;4.60;3.47;;;24.20;87.60;;;;;;5103079;28;20434;-92
2022/05/08 10:55:17;;;;;;;5.57;4.20;;;24.30;88.80;;;;;;5102901;28;20431;-94
2022/05/08 10:57:48;;;;;;;3.93;3.40;;;24.30;88.30;;;;;;5121691;28;20993;-93
2022/05/08 11:00:22;;;;;;;5.60;3.70;;;24.30;89.60;;;;;;5125183;28;20478;-91
2022/05/08 11:02:50;;;;;;;5.63;3.70;;;24.40;90.00;;;;;;5102226;28;20434;-92
2022/05/08 11:05:21;;;;;;;5.93;3.63;;;24.40;88.10;;;;;;5101627;28;20431;-93
2022/05/08 11:07:56;;;;;;;4.37;3.80;;;24.50;88.10;;;;;;5098676;28;20443;-92
2022/05/08 11:10:24;;;;;;;4.93;3.47;;;24.50;88.60;;;;;;5107062;28;20414;-93
2022/05/08 11:13:17;;;;;;;4.27;3.97;;;24.60;89.80;;;;;;5016335;28;20801;-91
2022/05/08 11:15:45;;;;;;;3.87;3.43;;;24.70;89.80;;;;;;5034202;28;20808;-93
2022/05/08 11:18:19;;;;;;;4.90;3.80;;;24.70;88.20;;;;;;5016419;28;20437;-94
2022/05/08 11:20:53;;;;;;;5.30;3.70;;;24.80;86.70;;;;;;5017089;28;20486;-93
2022/05/08 11:23:24;;;;;;;5.20;3.70;;;24.80;87.60;;;;;;5016907;28;20499;-93
2022/05/08 11:25:52;;;;;;;3.53;3.10;;;24.80;88.10;;;;;;5036536;28;20423;-91
2022/05/08 11:28:20;;;;;;;4.30;3.20;;;24.80;87.60;;;;;;5053778;28;20430;-93
2022/05/08 11:30:48;;;;;;;4.00;3.20;;;24.90;88.60;;;;;;5053526;28;20964;-93
2022/05/08 11:36:04;;;;;;;4.17;3.70;;;24.80;87.70;;;;;;5053694;28;20463;-92
2022/05/08 11:38:46;;;;;;;5.73;3.70;;;24.80;87.00;;;;;;5053519;28;20434;-92
2022/05/08 11:41:17;;;;;;;4.13;3.73;;;24.90;86.00;;;;;;5036264;28;20494;-93
2022/05/08 11:43:47;;;;;;;3.30;3.10;;;24.80;87.20;;;;;;5036933;28;20476;-93
2022/05/08 11:46:18;;;;;;;4.03;3.63;;;24.90;86.60;;;;;;5055438;28;20434;-91
2022/05/08 11:48:48;;;;;;;3.30;3.00;;;24.90;85.40;;;;;;5040996;28;20418;-92
2022/05/08 11:51:18;;;;;;;4.20;3.40;;;24.90;85.50;;;;;;5046521;28;20942;-92
2022/05/08 11:53:50;;;;;;;5.97;3.77;;;24.90;86.10;;;;;;5036043;28;20548;-93
2022/05/08 11:56:29;;;;;;;9.13;5.60;;;24.90;86.60;;;;;;5035700;28;20422;-91
2022/05/08 11:59:01;;;;;;;6.40;5.40;;;24.90;85.70;;;;;;5035546;28;20433;-94
2022/05/08 12:01:33;;;;;;;4.77;3.80;;;24.90;85.00;;;;;;5055197;28;20398;-91
2022/05/08 12:04:28;;;;;;;4.17;3.77;;;25.00;85.20;;;;;;5021451;28;20526;-91
2022/05/08 12:07:05;;;;;;;5.70;4.13;;;25.00;84.70;;;;;;5015079;28;20484;-92
2022/05/08 12:09:35;;;;;;;4.53;4.10;;;25.00;84.50;;;;;;5017466;28;20435;-93
2022/05/08 12:12:23;;;;;;;4.40;4.00;;;24.90;85.70;;;;;;5017202;28;20516;-91
2022/05/08 12:14:52;;;;;;;5.43;3.90;;;25.00;84.70;;;;;;5017175;28;20504;-91
2022/05/08 12:17:19;;;;;;;5.40;4.03;;;25.00;85.00;;;;;;5016808;28;20435;-93
2022/05/08 12:19:55;;;;;;;4.10;3.70;;;25.00;86.20;;;;;;5033840;28;20495;-93
2022/05/08 12:22:29;;;;;;;4.80;4.10;;;25.00;86.80;;;;;;5033403;28;20438;-91
2022/05/08 12:24:59;;;;;;;3.70;3.40;;;25.10;86.60;;;;;;5016695;28;20438;-91
2022/05/08 12:27:25;;;;;;;4.47;3.97;;;25.10;86.10;;;;;;5073475;28;20747;-93
2022/05/08 12:29:53;;;;;;;4.40;4.00;;;25.20;85.30;;;;;;5098737;28;20510;-92
2022/05/08 12:32:20;;;;;;;3.60;3.30;;;25.20;85.40;;;;;;5099308;28;20495;-93
2022/05/08 12:34:47;;;;;;;4.47;3.67;;;25.20;84.40;;;;;;5020691;28;20458;-92
2022/05/08 12:37:14;;;;;;;7.07;3.53;;;25.20;84.80;;;;;;5034431;28;20442;-92
2022/05/08 12:39:42;;;;;;;3.50;3.20;;;25.20;84.30;;;;;;5015865;28;21020;-93
2022/05/08 12:42:09;;;;;;;3.90;3.40;;;25.10;84.80;;;;;;5014954;28;20428;-93
2022/05/08 12:44:47;;;;;;;5.03;3.90;;;25.10;85.30;;;;;;5016286;28;20428;-91
2022/05/08 12:47:14;;;;;;;4.20;3.77;;;25.20;85.10;;;;;;5018264;28;20439;-91
2022/05/08 12:49:42;;;;;;;5.57;3.80;;;25.20;83.80;;;;;;5024583;28;20423;-91
2022/05/08 12:52:08;;;;;;;4.57;3.80;;;25.20;84.30;;;;;;5015999;28;20450;-91
2022/05/08 12:54:35;;;;;;;4.20;3.47;;;25.30;83.40;;;;;;5034344;28;20487;-92
2022/05/08 12:57:04;;;;;;;3.97;3.60;;;25.30;84.80;;;;;;5037260;28;20447;-91
2022/05/08 12:59:49;;;;;;;5.97;3.53;;;25.30;83.50;;;;;;5038214;28;20470;-89
2022/05/08 13:02:18;;;;;;;3.77;3.20;;;25.40;83.60;;;;;;5019745;28;20442;-90
2022/05/08 13:04:44;;;;;;;3.60;3.30;;;25.40;84.70;;;;;;5016724;28;20444;-92
2022/05/08 13:07:10;;;;;;;4.13;3.73;;;25.40;84.10;;;;;;5015847;28;20484;-92
2022/05/08 13:09:37;;;;;;;4.10;3.40;;;25.40;84.10;;;;;;5032481;28;20431;-94